Time;durP1;ratioP1;P1;durP2;ratioP2;P2;SDS_P1;SDS_P2;PMS_P1;PMS_P2;Temp;Humidity;BMP_temperature;BMP_pressure;BME280_temperature;BME280_humidity;BME280_pressure;Samples;Min_cycle;Max_cycle;Signal;HPM_P1;HPM_P2
2022/08/31 00:04:57;;;;;;;3.77;0.93;;;;;;;13.25;86.51;100282.31;1681803;84;21490;-60
2022/08/31 00:07:26;;;;;;;2.40;0.73;;;;;;;13.18;86.42;100276.06;1665005;84;21002;-60
2022/08/31 00:09:53;;;;;;;7.60;1.32;;;;;;;13.13;86.51;100277.21;1690850;83;20906;-60
2022/08/31 00:12:20;;;;;;;1.55;0.90;;;;;;;13.08;86.63;100271.34;1679250;84;20905;-60
2022/08/31 00:14:47;;;;;;;2.05;1.02;;;;;;;13.04;86.79;100277.20;1691529;83;20903;-60
2022/08/31 00:17:15;;;;;;;3.52;0.75;;;;;;;12.98;86.88;100275.73;1690793;84;22208;-60
2022/08/31 00:19:42;;;;;;;2.92;1.00;;;;;;;12.93;86.85;100269.01;1692746;84;22284;-60
2022/08/31 00:22:09;;;;;;;2.47;0.75;;;;;;;12.89;86.94;100275.34;1689271;84;21000;-60
2022/08/31 00:24:35;;;;;;;4.28;1.45;;;;;;;12.84;87.10;100277.32;1693333;83;20890;-60
2022/08/31 00:27:02;;;;;;;2.80;1.10;;;;;;;12.81;87.47;100280.09;1694256;83;21523;-59
2022/08/31 00:29:29;;;;;;;1.95;0.90;;;;;;;12.79;87.23;100281.92;1695904;82;21262;-60
2022/08/31 00:31:55;;;;;;;3.57;1.73;;;;;;;12.75;87.10;100282.55;1694908;83;20946;-60
2022/08/31 00:34:25;;;;;;;3.80;1.13;;;;;;;12.68;87.08;100277.19;1687294;83;21173;-60
2022/08/31 00:36:52;;;;;;;4.55;2.08;;;;;;;12.63;87.07;100281.79;1693434;82;20929;-60
2022/08/31 00:39:19;;;;;;;1.30;1.05;;;;;;;12.57;87.16;100282.08;1696852;82;20960;-60
2022/08/31 00:41:46;;;;;;;3.70;1.02;;;;;;;12.47;87.16;100286.91;1691376;83;21543;-60
2022/08/31 00:44:13;;;;;;;2.00;1.00;;;;;;;12.40;87.04;100293.34;1692216;83;21468;-59
2022/08/31 00:46:42;;;;;;;1.00;0.90;;;;;;;12.28;87.08;100290.36;1707359;83;20966;-60
2022/08/31 00:49:23;;;;;;;2.37;1.00;;;;;;;12.18;87.27;100283.83;1686282;84;20919;-60
2022/08/31 00:52:08;;;;;;;3.52;1.00;;;;;;;12.07;87.32;100289.56;1687006;84;21401;-60
2022/08/31 00:54:55;;;;;;;1.37;0.90;;;;;;;11.99;87.43;100295.59;1676285;84;21835;-59
2022/08/31 00:57:27;;;;;;;2.42;1.10;;;;;;;11.92;87.74;100294.61;1702852;83;20978;-60
2022/08/31 00:59:54;;;;;;;3.35;1.17;;;;;;;11.90;87.71;100294.66;1675139;84;21007;-59
2022/08/31 01:02:21;;;;;;;1.85;1.20;;;;;;;11.89;87.89;100297.37;1691450;84;20943;-60
2022/08/31 01:04:47;;;;;;;2.67;0.90;;;;;;;11.85;87.79;100294.89;1688757;83;20954;-59
2022/08/31 01:07:14;;;;;;;2.30;1.03;;;;;;;11.80;87.79;100289.43;1693296;82;21219;-59
2022/08/31 01:09:43;;;;;;;1.92;1.12;;;;;;;11.75;87.82;100288.31;1706415;83;20902;-59
2022/08/31 01:12:11;;;;;;;2.22;1.02;;;;;;;11.68;87.81;100289.50;1692314;83;20996;-60
2022/08/31 01:14:39;;;;;;;6.45;1.17;;;;;;;11.67;87.98;100294.33;1689419;82;20919;-59
2022/08/31 01:17:07;;;;;;;1.30;0.90;;;;;;;11.64;87.98;100290.53;1673900;83;20948;-60
2022/08/31 01:19:42;;;;;;;;;;;;;;;11.58;88.18;100293.41;1697100;83;21472;-59
2022/08/31 01:22:31;;;;;;;3.02;1.30;;;;;;;11.58;88.18;100290.34;1707877;83;20698;-60
2022/08/31 01:24:58;;;;;;;2.87;1.00;;;;;;;11.56;88.49;100288.70;1707009;81;21450;-59
2022/08/31 01:27:29;;;;;;;5.37;1.90;;;;;;;11.60;88.85;100286.36;1693825;84;20941;-59
2022/08/31 01:30:01;;;;;;;4.67;1.35;;;;;;;11.52;88.23;100285.83;1695215;83;20946;-59
2022/08/31 01:32:28;;;;;;;5.05;1.47;;;;;;;11.47;88.28;100283.86;1680766;84;21079;-59
2022/08/31 01:34:55;;;;;;;2.30;1.03;;;;;;;11.41;88.25;100283.20;1688915;83;20904;-60
2022/08/31 01:37:22;;;;;;;1.93;1.07;;;;;;;11.38;88.36;100289.87;1692932;83;21364;-59
2022/08/31 01:39:49;;;;;;;4.75;1.02;;;;;;;11.35;88.43;100284.77;1691786;84;21120;-59
2022/08/31 01:42:17;;;;;;;3.67;1.55;;;;;;;11.33;88.45;100287.89;1691942;84;20986;-59
2022/08/31 01:44:44;;;;;;;1.82;1.20;;;;;;;11.30;88.61;100293.25;1692760;84;21208;-60
2022/08/31 01:47:11;;;;;;;4.22;1.10;;;;;;;11.26;88.63;100290.38;1679518;83;20968;-60
2022/08/31 01:49:37;;;;;;;48.87;1.60;;;;;;;11.22;88.46;100290.09;1686318;84;21527;-59
2022/08/31 01:52:05;;;;;;;3.87;0.77;;;;;;;11.14;88.25;100293.48;1709518;82;20974;-59
2022/08/31 01:54:32;;;;;;;4.08;0.60;;;;;;;11.04;88.24;100293.48;1719126;82;21209;-59
2022/08/31 01:57:00;;;;;;;1.32;0.62;;;;;;;10.95;88.22;100289.01;1717148;82;21073;-59
2022/08/31 01:59:27;;;;;;;1.02;0.47;;;;;;;10.86;88.26;100290.66;1708480;82;21017;-59
2022/08/31 02:01:55;;;;;;;2.25;0.60;;;;;;;10.82;88.20;100298.23;1694815;83;20986;-60
2022/08/31 02:04:26;;;;;;;2.15;0.50;;;;;;;10.77;88.22;100301.94;1696458;83;21518;-60
2022/08/31 02:06:56;;;;;;;0.93;0.62;;;;;;;10.71;88.37;100304.33;1700102;83;21027;-59
2022/08/31 02:09:23;;;;;;;4.00;0.50;;;;;;;10.68;88.59;100303.14;1689702;83;21856;-60
2022/08/31 02:11:51;;;;;;;13.65;0.70;;;;;;;10.65;88.50;100303.27;1695919;83;21811;-60
2022/08/31 02:14:18;;;;;;;;;;;;;;;10.61;88.50;100301.66;1698211;83;20946;-59
2022/08/31 02:16:45;;;;;;;0.98;0.55;;;;;;;10.55;88.79;100305.81;1695150;83;20127;-59
2022/08/31 02:19:12;;;;;;;3.90;0.55;;;;;;;10.57;88.83;100302.70;1679453;83;26603;-59
2022/08/31 02:21:38;;;;;;;1.70;0.30;;;;;;;10.52;88.69;100303.70;1697792;83;21056;-60
2022/08/31 02:24:07;;;;;;;0.50;0.50;;;;;;;10.45;88.66;100299.64;1696290;83;21640;-59
2022/08/31 02:26:33;;;;;;;2.00;0.60;;;;;;;10.39;88.78;100306.83;1676110;84;20922;-60
2022/08/31 02:29:01;;;;;;;1.33;0.60;;;;;;;10.29;88.58;100306.34;1718138;82;21384;-59
2022/08/31 02:31:27;;;;;;;0.85;0.47;;;;;;;10.19;88.66;100304.47;1714308;83;20923;-59
2022/08/31 02:33:54;;;;;;;1.30;0.60;;;;;;;10.18;88.54;100308.45;1689955;83;21050;-59
2022/08/31 02:36:21;;;;;;;1.00;0.80;;;;;;;10.13;88.62;100305.16;1696135;83;20919;-59
2022/08/31 02:38:47;;;;;;;0.95;0.60;;;;;;;10.08;88.59;100300.97;1688438;83;20938;-59
2022/08/31 02:41:16;;;;;;;1.72;0.68;;;;;;;10.05;88.69;100297.59;1700469;82;20937;-59
2022/08/31 02:43:43;;;;;;;2.47;0.70;;;;;;;9.99;88.96;100303.88;1695947;83;20934;-59
2022/08/31 02:46:10;;;;;;;1.05;0.72;;;;;;;9.95;89.04;100303.61;1688108;83;21942;-59
2022/08/31 02:48:37;;;;;;;1.95;0.70;;;;;;;9.95;88.90;100297.09;1694978;84;20986;-59
2022/08/31 02:51:09;;;;;;;0.73;0.53;;;;;;;9.94;89.02;100301.92;1690236;83;21012;-60
2022/08/31 02:53:37;;;;;;;3.20;0.80;;;;;;;9.89;89.10;100302.53;1692012;83;20908;-60
2022/08/31 02:56:06;;;;;;;2.75;0.82;;;;;;;9.84;89.18;100299.22;1693031;83;21463;-59
2022/08/31 02:58:35;;;;;;;3.72;1.22;;;;;;;9.84;89.26;100301.83;1692497;84;21069;-60
2022/08/31 03:01:02;;;;;;;3.08;0.70;;;;;;;9.83;89.35;100293.59;1689142;84;21421;-59
2022/08/31 03:03:29;;;;;;;1.20;0.90;;;;;;;9.82;89.33;100291.89;1665477;85;21429;-59
2022/08/31 03:05:55;;;;;;;2.72;0.50;;;;;;;9.82;89.38;100290.13;1639863;86;20962;-59
2022/08/31 03:08:22;;;;;;;1.13;0.70;;;;;;;9.84;89.19;100295.31;1670778;85;21535;-59
2022/08/31 03:10:49;;;;;;;3.43;0.80;;;;;;;9.79;89.06;100293.31;1693840;84;21131;-59
2022/08/31 03:13:16;;;;;;;1.83;0.70;;;;;;;9.73;89.03;100293.53;1647858;85;20968;-59
2022/08/31 03:15:43;;;;;;;3.63;1.00;;;;;;;9.67;88.99;100296.36;1690903;83;20947;-59
2022/08/31 03:18:09;;;;;;;1.30;0.60;;;;;;;9.62;88.90;100298.65;1693758;82;20922;-59
2022/08/31 03:20:36;;;;;;;2.45;1.32;;;;;;;9.57;88.88;100296.64;1691826;82;21434;-60
2022/08/31 03:23:04;;;;;;;2.25;0.98;;;;;;;9.54;88.97;100299.36;1700143;82;21052;-59
2022/08/31 03:25:31;;;;;;;3.65;1.50;;;;;;;9.51;89.08;100298.16;1688389;84;20972;-59
2022/08/31 03:27:57;;;;;;;1.95;1.15;;;;;;;9.52;89.13;100300.31;1690176;84;20903;-59
2022/08/31 03:30:25;;;;;;;7.25;1.40;;;;;;;9.49;89.44;100306.48;1688510;84;20935;-59
2022/08/31 03:32:52;;;;;;;5.50;1.30;;;;;;;9.50;89.54;100305.59;1691830;84;20944;-59
2022/08/31 03:35:19;;;;;;;3.02;1.30;;;;;;;9.53;89.64;100307.25;1665061;85;21132;-60
2022/08/31 03:37:46;;;;;;;5.05;1.30;;;;;;;9.56;89.71;100313.20;1690639;83;20909;-59
2022/08/31 03:40:13;;;;;;;4.23;1.17;;;;;;;9.58;89.69;100310.10;1690731;84;21011;-59
2022/08/31 03:42:40;;;;;;;1.17;0.70;;;;;;;9.58;89.63;100303.58;1690338;84;20918;-60
2022/08/31 03:45:08;;;;;;;2.05;0.90;;;;;;;9.55;89.52;100310.20;1687620;84;20994;-60
2022/08/31 03:47:36;;;;;;;1.47;0.80;;;;;;;9.52;89.71;100305.09;1680989;83;21081;-60
2022/08/31 03:50:05;;;;;;;2.90;0.90;;;;;;;9.53;89.69;100313.31;1694809;83;27464;-59
2022/08/31 03:52:32;;;;;;;2.50;0.90;;;;;;;9.50;89.67;100317.33;1700121;82;20978;-59
2022/08/31 03:54:58;;;;;;;1.27;0.68;;;;;;;9.49;89.79;100311.69;1668165;85;20975;-60
2022/08/31 03:57:25;;;;;;;0.98;0.60;;;;;;;9.57;89.64;100317.50;1694333;82;21486;-59
2022/08/31 03:59:56;;;;;;;1.37;0.72;;;;;;;9.57;89.58;100314.89;1697807;84;21799;-59
2022/08/31 04:02:23;;;;;;;2.33;0.70;;;;;;;9.58;89.59;100319.23;1686618;82;20978;-60
2022/08/31 04:04:52;;;;;;;5.75;1.32;;;;;;;9.59;89.59;100328.73;1674174;83;21445;-60
2022/08/31 04:07:20;;;;;;;1.95;1.25;;;;;;;9.60;89.66;100322.61;1693987;84;20946;-60
2022/08/31 04:09:48;;;;;;;5.10;1.10;;;;;;;9.64;89.90;100324.23;1686538;82;20919;-61
2022/08/31 04:12:17;;;;;;;1.47;1.22;;;;;;;9.69;89.84;100325.81;1691427;82;21076;-60
2022/08/31 04:14:44;;;;;;;1.30;0.70;;;;;;;9.74;89.95;100331.73;1694588;83;20902;-61
2022/08/31 04:17:12;;;;;;;2.70;1.20;;;;;;;9.74;89.92;100327.81;1676080;84;21560;-61
2022/08/31 04:19:40;;;;;;;2.83;1.07;;;;;;;9.80;89.85;100326.30;1693838;82;21014;-59
2022/08/31 04:22:07;;;;;;;4.35;1.07;;;;;;;9.85;89.90;100329.60;1656153;85;21013;-60
2022/08/31 04:24:34;;;;;;;8.43;0.88;;;;;;;9.92;90.22;100325.89;1680879;85;21027;-60
2022/08/31 04:27:02;;;;;;;8.88;1.57;;;;;;;10.04;90.12;100330.67;1690958;84;20977;-60
2022/08/31 04:29:29;;;;;;;3.40;1.02;;;;;;;10.11;90.10;100333.93;1693195;84;21540;-60
2022/08/31 04:31:56;;;;;;;3.50;1.27;;;;;;;10.19;90.31;100320.58;1697961;82;20915;-60
2022/08/31 04:34:24;;;;;;;2.95;0.70;;;;;;;10.35;90.49;100326.98;1694254;84;20979;-60
2022/08/31 04:36:51;;;;;;;4.03;1.00;;;;;;;10.48;90.36;100325.64;1701494;84;21118;-59
2022/08/31 04:39:17;;;;;;;1.97;1.10;;;;;;;10.61;90.41;100325.16;1699988;82;20939;-60
2022/08/31 04:41:44;;;;;;;8.27;1.83;;;;;;;10.69;89.91;100325.73;1701030;84;20930;-61
2022/08/31 04:44:11;;;;;;;1.90;0.80;;;;;;;10.82;90.33;100321.74;1699431;84;20938;-61
2022/08/31 04:46:39;;;;;;;2.77;1.20;;;;;;;11.14;90.67;100324.84;1699297;83;21677;-60
2022/08/31 04:49:08;;;;;;;2.62;1.12;;;;;;;11.65;90.87;100326.26;1688346;84;21644;-60
2022/08/31 04:51:35;;;;;;;2.10;1.02;;;;;;;12.39;89.33;100308.67;1688757;84;21465;-61
2022/08/31 04:54:05;;;;;;;8.83;1.55;;;;;;;12.39;89.33;100308.67;1698929;84;20984;-61
2022/08/31 04:56:36;;;;;;;3.67;1.30;;;;;;;12.64;89.09;100321.03;1697612;84;20930;-61
2022/08/31 04:59:07;;;;;;;5.75;1.70;;;;;;;12.94;89.16;100323.15;1704701;83;20958;-61
2022/08/31 05:01:39;;;;;;;4.87;1.55;;;;;;;13.35;89.47;100326.41;1705379;83;21298;-61
2022/08/31 05:04:07;;;;;;;3.50;1.30;;;;;;;14.47;90.52;100320.64;1697403;83;20891;-61
2022/08/31 05:06:37;;;;;;;3.30;1.40;;;;;;;15.87;90.85;100317.58;1705135;83;21515;-61
2022/08/31 05:09:08;;;;;;;3.98;1.35;;;;;;;17.13;90.47;100313.72;1678627;85;20962;-62
2022/08/31 05:11:35;;;;;;;7.80;1.60;;;;;;;18.25;89.02;100313.28;1692955;84;20911;-61
2022/08/31 05:14:04;;;;;;;11.18;2.58;;;;;;;19.17;88.70;100314.65;1701960;82;21050;-62
2022/08/31 05:16:32;;;;;;;3.70;1.65;;;;;;;19.97;87.13;100316.60;1696609;83;21453;-62
2022/08/31 05:19:00;;;;;;;8.83;1.80;;;;;;;20.39;86.26;100320.85;1704252;83;20934;-62
2022/08/31 05:21:33;;;;;;;9.25;2.35;;;;;;;21.00;86.42;100315.97;1698277;83;21005;-62
2022/08/31 05:24:07;;;;;;;10.88;1.82;;;;;;;21.54;84.41;100323.06;1701752;83;21016;-62
2022/08/31 05:26:39;;;;;;;7.87;1.77;;;;;;;21.91;83.84;100315.96;1699177;83;21258;-62
2022/08/31 05:29:08;;;;;;;12.95;1.77;;;;;;;22.53;84.52;100316.34;1705419;82;20985;-62
2022/08/31 05:31:37;;;;;;;5.05;1.55;;;;;;;22.94;82.91;100318.48;1694388;83;21503;-62
2022/08/31 05:34:04;;;;;;;5.60;1.25;;;;;;;23.42;82.99;100311.55;1688633;82;21006;-62
2022/08/31 05:36:32;;;;;;;6.65;1.27;;;;;;;23.87;82.91;100315.78;1692646;83;20938;-62
2022/08/31 05:38:59;;;;;;;7.95;1.52;;;;;;;23.79;81.20;100324.99;1700821;83;21068;-62
2022/08/31 05:41:27;;;;;;;5.30;1.20;;;;;;;23.32;79.44;100326.18;1697114;83;20890;-62
2022/08/31 05:43:54;;;;;;;9.40;1.65;;;;;;;22.38;78.65;100327.02;1700068;83;20934;-63
2022/08/31 05:46:21;;;;;;;;;;;;;;;21.33;78.98;100331.45;1701598;83;20974;-63
2022/08/31 05:48:47;;;;;;;2.90;1.15;;;;;;;21.28;82.08;100326.50;1702465;83;20688;-62
2022/08/31 05:51:16;;;;;;;;;;;;;;;21.55;81.41;100331.38;1707552;82;21186;-62
2022/08/31 05:53:43;;;;;;;3.02;1.40;;;;;;;21.49;80.83;100329.23;1702740;83;20119;-62
2022/08/31 05:56:14;;;;;;;3.37;1.37;;;;;;;21.94;82.68;100326.33;1708465;82;20953;-63
2022/08/31 05:58:43;;;;;;;4.10;1.70;;;;;;;22.04;80.67;100330.36;1698405;82;21016;-63
2022/08/31 06:01:21;;;;;;;3.85;1.07;;;;;;;21.37;78.63;100332.89;1702668;82;21520;-63
2022/08/31 06:03:47;;;;;;;3.67;1.10;;;;;;;20.75;78.07;100337.88;1702253;82;21142;-63
2022/08/31 06:06:16;;;;;;;3.02;1.10;;;;;;;20.25;79.08;100333.86;1702983;82;21494;-63
2022/08/31 06:08:43;;;;;;;2.50;1.02;;;;;;;20.58;79.29;100331.73;1676210;84;21466;-63
2022/08/31 06:11:16;;;;;;;2.75;1.40;;;;;;;21.04;80.02;100339.16;1691038;84;20927;-63
2022/08/31 06:13:41;;;;;;;4.97;1.25;;;;;;;21.42;77.88;100334.20;1688251;84;20959;-64
2022/08/31 06:16:08;;;;;;;2.58;0.93;;;;;;;21.85;79.50;100338.59;1685967;83;21048;-63
2022/08/31 06:18:37;;;;;;;3.30;0.90;;;;;;;22.48;78.26;100341.17;1689489;84;20923;-63
2022/08/31 06:21:11;;;;;;;1.90;0.80;;;;;;;22.74;77.30;100346.02;1711570;82;20922;-64
2022/08/31 06:23:41;;;;;;;4.45;0.90;;;;;;;22.89;76.18;100345.17;1685438;84;20991;-61
2022/08/31 06:26:14;;;;;;;2.70;1.05;;;;;;;22.42;73.55;100350.20;1688606;84;21001;-62
2022/08/31 06:28:47;;;;;;;1.52;1.00;;;;;;;21.71;73.46;100354.03;1690100;83;21105;-62
2022/08/31 06:31:31;;;;;;;2.98;0.80;;;;;;;21.22;74.49;100354.41;1698170;83;20922;-62
2022/08/31 06:34:00;;;;;;;3.10;0.93;;;;;;;21.51;75.45;100353.88;1704753;82;20934;-62
2022/08/31 06:36:29;;;;;;;2.62;1.00;;;;;;;21.97;73.63;100346.50;1712643;83;20948;-62
2022/08/31 06:38:59;;;;;;;6.50;1.37;;;;;;;21.74;72.98;100356.42;1711387;83;21433;-63
2022/08/31 06:41:30;;;;;;;2.98;1.02;;;;;;;22.25;73.87;100359.14;1686887;84;22107;-62
2022/08/31 06:44:00;;;;;;;1.60;0.78;;;;;;;23.01;75.42;100362.25;1714756;83;21727;-61
2022/08/31 06:46:28;;;;;;;2.87;1.17;;;;;;;23.72;73.67;100357.19;1686815;83;20894;-62
2022/08/31 06:48:56;;;;;;;1.35;0.70;;;;;;;22.83;67.28;100357.21;1711820;82;21425;-62
2022/08/31 06:51:23;;;;;;;3.08;0.85;;;;;;;22.44;67.44;100369.05;1690184;83;21045;-61
2022/08/31 06:53:51;;;;;;;1.42;0.82;;;;;;;22.45;65.69;100370.72;1701047;83;21752;-62
2022/08/31 06:56:22;;;;;;;2.65;0.90;;;;;;;22.14;62.06;100365.84;1708076;83;21591;-62
2022/08/31 06:58:50;;;;;;;2.05;1.07;;;;;;;21.95;65.51;100370.55;1699032;82;20933;-62
2022/08/31 07:01:27;;;;;;;1.17;0.65;;;;;;;21.30;64.98;100372.87;1700432;83;20875;-61
2022/08/31 07:04:00;;;;;;;1.27;0.78;;;;;;;21.17;65.53;100377.86;1699208;82;20934;-62
2022/08/31 07:06:37;;;;;;;2.22;0.90;;;;;;;20.81;65.51;100375.48;1702850;82;21060;-61
2022/08/31 07:09:08;;;;;;;4.10;0.70;;;;;;;20.43;66.15;100376.69;1678013;84;21507;-61
2022/08/31 07:11:41;;;;;;;4.95;1.12;;;;;;;20.42;67.20;100372.36;1692422;83;20938;-61
2022/08/31 07:14:13;;;;;;;2.92;1.35;;;;;;;20.60;68.13;100371.41;1683355;83;21500;-62
2022/08/31 07:16:42;;;;;;;2.67;1.00;;;;;;;20.61;67.07;100380.56;1694367;84;22093;-61
2022/08/31 07:19:11;;;;;;;4.05;0.93;;;;;;;20.21;66.83;100380.99;1665502;84;21351;-61
2022/08/31 07:21:46;;;;;;;1.72;0.70;;;;;;;19.80;66.98;100382.36;1705213;83;20930;-61
2022/08/31 07:24:17;;;;;;;2.33;0.95;;;;;;;19.58;67.51;100387.06;1710131;83;20938;-61
2022/08/31 07:27:17;;;;;;;2.10;0.80;;;;;;;18.93;66.34;100388.27;1695482;83;20949;-62
2022/08/31 07:29:46;;;;;;;1.57;0.80;;;;;;;18.79;67.42;100381.77;1698517;83;20926;-62
2022/08/31 07:32:16;;;;;;;3.42;0.65;;;;;;;18.46;66.86;100393.75;1753464;81;21013;-61
2022/08/31 07:34:44;;;;;;;2.15;0.57;;;;;;;18.47;67.18;100391.94;1749849;81;20929;-61
2022/08/31 07:42:46;;;;;;;1.92;0.50;;;;;;;18.45;66.87;100402.61;1746886;80;20973;-62
2022/08/31 07:45:23;;;;;;;2.33;0.62;;;;;;;18.46;65.74;100403.00;1750002;80;22009;-63
2022/08/31 07:47:54;;;;;;;1.00;0.50;;;;;;;18.37;64.05;100414.19;1747361;81;20946;-61
2022/08/31 07:50:26;;;;;;;0.80;0.40;;;;;;;18.53;66.49;100406.05;1695840;83;20875;-64
2022/08/31 07:52:57;;;;;;;1.12;0.50;;;;;;;18.71;65.33;100394.69;1687965;83;20939;-61
2022/08/31 07:55:26;;;;;;;2.02;0.65;;;;;;;18.80;65.91;100412.58;1688144;83;21010;-64
2022/08/31 07:57:54;;;;;;;0.68;0.42;;;;;;;18.88;66.17;100404.95;1692271;83;21115;-62
2022/08/31 08:00:28;;;;;;;2.87;0.50;;;;;;;19.14;65.91;100404.88;1691094;83;20941;-62
2022/08/31 08:03:05;;;;;;;2.15;0.55;;;;;;;19.33;65.42;100405.23;1690802;84;21445;-62
2022/08/31 08:05:35;;;;;;;1.00;0.40;;;;;;;19.21;65.23;100417.56;1690671;83;20952;-61
2022/08/31 08:08:02;;;;;;;2.50;0.60;;;;;;;19.38;63.50;100409.72;1679400;83;20990;-61
2022/08/31 08:10:31;;;;;;;1.02;0.50;;;;;;;18.92;62.80;100414.34;1687699;83;21118;-61
2022/08/31 08:13:04;;;;;;;3.40;0.55;;;;;;;18.39;62.97;100420.23;1686999;84;20918;-61
2022/08/31 08:15:36;;;;;;;0.75;0.50;;;;;;;17.93;63.85;100424.68;1690771;83;21030;-61
2022/08/31 08:18:05;;;;;;;0.82;0.30;;;;;;;18.00;64.78;100427.27;1689688;83;21029;-61
2022/08/31 08:20:35;;;;;;;1.60;0.57;;;;;;;18.25;64.96;100426.94;1709795;83;20946;-61
2022/08/31 08:23:04;;;;;;;1.25;0.72;;;;;;;18.62;65.26;100437.14;1693295;83;21140;-61
2022/08/31 08:25:38;;;;;;;1.98;0.40;;;;;;;18.37;62.94;100439.31;1677875;84;21579;-61
2022/08/31 08:28:06;;;;;;;0.72;0.35;;;;;;;18.16;63.70;100425.77;1691979;84;20931;-62
2022/08/31 08:30:34;;;;;;;0.78;0.33;;;;;;;17.95;63.89;100426.72;1693856;83;21972;-61
2022/08/31 08:33:02;;;;;;;0.80;0.40;;;;;;;17.74;63.63;100434.73;1698474;83;20938;-61
2022/08/31 08:35:31;;;;;;;2.00;0.45;;;;;;;17.54;64.28;100436.88;1699103;83;21013;-63
2022/08/31 08:38:02;;;;;;;1.07;0.40;;;;;;;17.45;64.01;100435.69;1693378;83;21458;-62
2022/08/31 08:40:38;;;;;;;1.10;0.50;;;;;;;17.62;64.53;100446.95;1696998;83;20966;-61
2022/08/31 08:43:06;;;;;;;2.15;0.33;;;;;;;17.63;64.13;100433.63;1695312;83;21517;-60
2022/08/31 08:45:34;;;;;;;1.50;0.60;;;;;;;17.41;62.96;100439.94;1694592;83;21049;-63
2022/08/31 08:48:08;;;;;;;1.07;0.45;;;;;;;17.56;64.02;100436.77;1693988;82;21115;-61
2022/08/31 08:50:32;;;;;;;1.87;0.57;;;;;;;18.04;65.05;100432.73;1673122;83;20974;-61
2022/08/31 08:53:03;;;;;;;2.85;0.78;;;;;;;18.05;62.75;100439.70;1673103;84;20981;-61
2022/08/31 08:55:37;;;;;;;2.33;0.80;;;;;;;18.26;64.07;100433.91;1684185;84;20955;-62
2022/08/31 08:58:08;;;;;;;1.27;0.50;;;;;;;18.05;63.20;100444.98;1681765;83;20946;-63
2022/08/31 09:00:36;;;;;;;1.27;0.40;;;;;;;18.06;64.02;100439.22;1688083;84;21107;-62
2022/08/31 09:03:32;;;;;;;1.87;0.40;;;;;;;18.05;63.02;100443.66;1667575;84;20961;-65
2022/08/31 09:06:33;;;;;;;3.05;0.68;;;;;;;18.30;63.47;100446.82;1691323;83;20949;-62
2022/08/31 09:09:26;;;;;;;2.00;0.60;;;;;;;17.94;63.40;100438.25;1691361;82;20953;-63
2022/08/31 09:12:26;;;;;;;0.95;0.50;;;;;;;17.64;63.29;100437.99;1693530;82;20875;-63
2022/08/31 09:15:37;;;;;;;1.50;0.70;;;;;;;17.85;64.10;100448.11;1698796;82;21041;-62
2022/08/31 09:18:31;;;;;;;0.78;0.37;;;;;;;18.19;64.29;100445.86;1667546;83;20966;-62
2022/08/31 09:21:21;;;;;;;1.70;0.65;;;;;;;18.55;61.81;100453.92;1662657;84;20918;-63
2022/08/31 09:24:02;;;;;;;2.67;0.42;;;;;;;18.70;62.61;100443.23;1680444;84;20981;-63
2022/08/31 09:26:34;;;;;;;0.95;0.40;;;;;;;18.84;61.52;100449.75;1698573;82;21508;-62
2022/08/31 09:29:02;;;;;;;3.37;0.23;;;;;;;18.83;60.87;100441.45;1689033;84;21083;-62
2022/08/31 09:31:40;;;;;;;0.55;0.40;;;;;;;18.60;59.53;100442.17;1662499;84;20940;-62
2022/08/31 09:34:12;;;;;;;0.57;0.37;;;;;;;18.16;59.45;100446.07;1680938;83;20934;-62
2022/08/31 09:36:40;;;;;;;2.60;0.45;;;;;;;18.15;60.28;100445.68;1689427;83;20923;-62
2022/08/31 09:39:24;;;;;;;0.45;0.30;;;;;;;18.08;58.69;100456.67;1694251;83;21563;-61
2022/08/31 09:41:56;;;;;;;1.32;0.40;;;;;;;17.97;58.72;100467.11;1692647;83;21085;-61
2022/08/31 09:44:30;;;;;;;1.10;0.50;;;;;;;18.04;60.80;100455.67;1694617;83;20926;-60
2022/08/31 09:47:01;;;;;;;0.30;0.30;;;;;;;18.35;61.04;100441.23;1685250;84;21473;-61
2022/08/31 09:49:38;;;;;;;1.72;0.40;;;;;;;18.58;59.94;100438.80;1701346;82;20988;-62
2022/08/31 09:55:11;;;;;;;1.00;0.40;;;;;;;18.68;59.31;100450.42;1690099;83;20938;-62
2022/08/31 09:55:13;;;;;;;1.47;0.50;;;;;;;18.75;59.39;100446.44;1693659;83;21245;-62
2022/08/31 09:57:52;;;;;;;;;;;;;;;18.94;59.50;100457.42;1700585;83;20977;-61
2022/08/31 10:00:41;;;;;;;0.78;0.50;;;;;;;18.94;57.18;100460.07;1696486;83;20192;-62
2022/08/31 10:03:23;;;;;;;2.87;0.60;;;;;;;18.51;58.60;100444.52;1689693;83;20942;-61
2022/08/31 10:05:53;;;;;;;1.40;0.60;;;;;;;18.10;57.29;100442.88;1693159;83;20958;-61
2022/08/31 10:08:45;;;;;;;1.02;0.50;;;;;;;17.86;59.39;100441.88;1687125;83;21122;-62
2022/08/31 10:11:17;;;;;;;1.17;0.40;;;;;;;17.78;59.85;100438.85;1686753;84;20954;-61
2022/08/31 10:14:03;;;;;;;0.80;0.40;;;;;;;17.91;60.34;100441.09;1696877;83;20973;-61
2022/08/31 10:16:37;;;;;;;3.40;0.53;;;;;;;18.29;61.15;100441.66;1696954;83;20911;-61
2022/08/31 10:19:14;;;;;;;1.90;0.80;;;;;;;18.73;60.51;100436.40;1698051;83;21626;-60
2022/08/31 10:21:52;;;;;;;2.92;0.60;;;;;;;18.89;57.78;100435.73;1697463;83;21104;-61
2022/08/31 10:24:44;;;;;;;1.95;0.42;;;;;;;18.97;58.91;100450.59;1702115;82;21030;-61
2022/08/31 10:27:16;;;;;;;0.42;0.20;;;;;;;19.18;57.18;100444.23;1697084;83;20999;-60
2022/08/31 10:30:06;;;;;;;0.85;0.40;;;;;;;18.81;56.62;100440.71;1699471;82;20970;-60
2022/08/31 10:32:41;;;;;;;1.35;0.30;;;;;;;18.79;57.52;100433.35;1697522;83;20946;-62
2022/08/31 10:35:25;;;;;;;0.85;0.47;;;;;;;18.85;56.78;100449.27;1701605;83;21064;-59
2022/08/31 10:38:31;;;;;;;4.03;0.70;;;;;;;18.68;58.22;100438.06;1708580;81;21352;-60
2022/08/31 10:41:06;;;;;;;1.75;0.50;;;;;;;18.64;58.38;100435.73;1683324;83;21465;-59
2022/08/31 10:43:54;;;;;;;1.50;0.40;;;;;;;18.77;58.99;100432.64;1691043;83;21471;-60
2022/08/31 10:46:20;;;;;;;3.30;0.40;;;;;;;18.66;58.58;100427.22;1683008;84;21183;-59
2022/08/31 10:48:52;;;;;;;1.12;0.37;;;;;;;18.76;59.21;100429.60;1691646;83;21047;-60
2022/08/31 10:51:31;;;;;;;1.40;0.65;;;;;;;19.05;57.40;100437.30;1688759;84;20907;-59
2022/08/31 10:54:11;;;;;;;1.00;0.45;;;;;;;19.00;58.50;100433.17;1690295;84;20892;-59
2022/08/31 10:57:09;;;;;;;2.52;0.50;;;;;;;18.48;57.05;100438.09;1693413;83;20979;-60
2022/08/31 11:00:40;;;;;;;2.00;0.50;;;;;;;18.15;58.20;100431.14;1692944;84;20926;-60
2022/08/31 11:02:47;;;;;;;;;;;;;;;18.09;59.06;100434.59;1681580;84;21468;-60
2022/08/31 11:05:28;;;;;;;1.95;0.60;;;;;;;17.96;59.88;100436.36;1696960;83;20116;-61
2022/08/31 11:08:15;;;;;;;0.53;0.40;;;;;;;18.21;60.44;100444.81;1702597;82;20961;-61
2022/08/31 11:10:52;;;;;;;0.70;0.50;;;;;;;18.17;59.15;100443.31;1698035;82;21566;-60
2022/08/31 11:14:00;;;;;;;1.65;0.50;;;;;;;17.97;57.68;100441.16;1697925;83;20955;-60
2022/08/31 11:16:42;;;;;;;1.27;0.72;;;;;;;17.76;58.20;100428.41;1710132;82;21138;-60
2022/08/31 11:19:58;;;;;;;1.00;0.40;;;;;;;17.64;58.23;100431.84;1691618;83;20972;-59
2022/08/31 11:22:35;;;;;;;2.70;0.50;;;;;;;17.68;59.03;100430.23;1683019;83;20922;-59
2022/08/31 11:25:23;;;;;;;1.05;0.40;;;;;;;17.88;59.07;100433.37;1699352;83;20942;-60
2022/08/31 11:28:08;;;;;;;0.85;0.35;;;;;;;17.99;59.29;100430.87;1678654;84;21550;-60
2022/08/31 11:30:42;;;;;;;0.23;0.20;;;;;;;18.04;59.51;100435.38;1661938;84;21793;-60
2022/08/31 11:33:18;;;;;;;4.97;0.60;;;;;;;17.82;57.09;100443.04;1663492;84;20989;-60
2022/08/31 11:35:59;;;;;;;0.30;0.20;;;;;;;17.62;57.03;100443.84;1664072;85;20919;-60
2022/08/31 11:38:51;;;;;;;2.08;0.50;;;;;;;17.54;56.81;100440.84;1663603;85;21539;-60
2022/08/31 11:41:48;;;;;;;0.95;0.42;;;;;;;17.46;56.46;100444.45;1660049;85;20963;-60
2022/08/31 11:44:43;;;;;;;0.82;0.50;;;;;;;17.42;57.88;100441.61;1662647;85;21804;-60
2022/08/31 11:47:29;;;;;;;1.00;0.60;;;;;;;17.58;58.57;100434.41;1661387;85;20922;-61
2022/08/31 11:50:04;;;;;;;0.95;0.40;;;;;;;17.86;58.72;100433.95;1660103;85;21002;-60
2022/08/31 11:52:52;;;;;;;2.52;0.88;;;;;;;17.86;58.91;100433.95;1662895;85;21021;-60
2022/08/31 11:55:34;;;;;;;0.50;0.40;;;;;;;17.76;58.71;100425.77;1662773;84;20955;-60
2022/08/31 11:58:13;;;;;;;1.05;0.47;;;;;;;17.63;59.02;100428.35;1674041;84;21124;-60
2022/08/31 12:01:03;;;;;;;1.07;0.30;;;;;;;17.81;59.49;100440.00;1666665;83;20899;-60